Time;durP1;ratioP1;P1;durP2;ratioP2;P2;SDS_P1;SDS_P2;PMS_P1;PMS_P2;Temp;Humidity;BMP_temperature;BMP_pressure;BME280_temperature;BME280_humidity;BME280_pressure;Samples;Min_cycle;Max_cycle;Signal;HPM_P1;HPM_P2
2021/07/20 00:00:34;;;;;;;27.30;14.47;;;19.80;80.60;;;;;;4997256;28;20434;-75
2021/07/20 00:03:02;;;;;;;35.33;15.33;;;19.80;80.30;;;;;;4993124;28;20583;-75
2021/07/20 00:05:29;;;;;;;28.70;14.37;;;19.80;80.50;;;;;;4988287;28;20214;-75
2021/07/20 00:08:06;;;;;;;33.83;16.60;;;19.80;80.50;;;;;;4992245;28;20495;-75
2021/07/20 00:10:46;;;;;;;32.67;15.97;;;19.80;80.20;;;;;;4981363;28;20421;-74
2021/07/20 00:13:13;;;;;;;32.77;15.23;;;19.80;80.30;;;;;;4990264;28;21043;-75
2021/07/20 00:15:39;;;;;;;32.80;16.00;;;19.70;80.30;;;;;;4993486;28;20450;-75
2021/07/20 00:18:12;;;;;;;32.40;16.07;;;19.60;80.80;;;;;;4991909;28;20429;-74
2021/07/20 00:20:39;;;;;;;29.70;15.67;;;19.60;80.90;;;;;;4987120;28;20480;-75
2021/07/20 00:23:06;;;;;;;32.10;15.50;;;19.60;81.10;;;;;;4988554;28;20497;-75
2021/07/20 00:25:32;;;;;;;28.80;16.90;;;19.50;81.20;;;;;;4984389;28;20480;-75
2021/07/20 00:28:00;;;;;;;34.63;15.93;;;19.50;81.40;;;;;;4992138;28;20782;-74
2021/07/20 00:30:26;;;;;;;29.70;16.30;;;19.50;81.50;;;;;;4995791;28;20431;-74
2021/07/20 00:32:52;;;;;;;28.07;14.23;;;19.40;81.80;;;;;;4989061;28;20516;-76
2021/07/20 00:35:19;;;;;;;30.90;15.87;;;19.30;81.80;;;;;;4979894;28;21000;-74
2021/07/20 00:37:44;;;;;;;34.27;15.67;;;19.20;82.20;;;;;;4992179;28;20190;-74
2021/07/20 00:40:14;;;;;;;31.83;16.40;;;19.20;82.40;;;;;;4991052;28;20436;-74
2021/07/20 00:42:40;;;;;;;35.73;16.67;;;19.30;82.20;;;;;;4991854;28;20658;-76
2021/07/20 00:45:09;;;;;;;32.30;15.60;;;19.20;82.20;;;;;;4990863;28;20527;-75
2021/07/20 00:47:35;;;;;;;33.97;16.60;;;19.10;82.80;;;;;;4992005;28;20426;-75
2021/07/20 00:50:03;;;;;;;29.30;15.27;;;19.20;82.50;;;;;;4984666;28;20430;-73
2021/07/20 00:52:29;;;;;;;22.87;13.67;;;19.20;82.50;;;;;;4987093;28;21301;-74
2021/07/20 00:54:55;;;;;;;30.63;15.73;;;19.20;82.70;;;;;;4992678;28;20446;-74
2021/07/20 00:57:23;;;;;;;27.33;14.73;;;19.30;82.70;;;;;;4992638;28;20927;-76
2021/07/20 00:59:49;;;;;;;29.97;14.53;;;19.20;82.70;;;;;;4992714;28;20220;-73
2021/07/20 01:02:15;;;;;;;34.27;16.03;;;19.20;82.40;;;;;;4994378;28;20433;-75
2021/07/20 01:04:41;;;;;;;29.20;15.17;;;19.10;82.70;;;;;;4992539;28;20486;-75
2021/07/20 01:07:08;;;;;;;32.33;16.37;;;19.00;82.80;;;;;;4991829;28;20188;-74
2021/07/20 01:09:34;;;;;;;29.83;14.73;;;18.90;83.60;;;;;;4994991;28;20557;-74
2021/07/20 01:12:00;;;;;;;29.20;14.60;;;18.90;83.40;;;;;;4996523;28;20456;-75
2021/07/20 01:14:27;;;;;;;31.77;15.20;;;18.80;83.60;;;;;;4995095;28;20514;-74
2021/07/20 01:16:55;;;;;;;30.67;15.63;;;18.80;83.80;;;;;;5000435;28;20463;-75
2021/07/20 01:19:26;;;;;;;31.03;15.70;;;18.80;83.80;;;;;;4995363;28;20765;-73
2021/07/20 01:21:53;;;;;;;34.50;15.90;;;18.70;84.30;;;;;;4987840;28;20438;-75
2021/07/20 01:24:19;;;;;;;27.90;15.57;;;18.70;84.30;;;;;;4989253;28;20974;-75
2021/07/20 01:26:46;;;;;;;30.23;15.00;;;18.70;84.40;;;;;;4994408;28;20467;-75
2021/07/20 01:29:14;;;;;;;29.10;14.90;;;18.70;84.00;;;;;;4988266;28;20947;-74
2021/07/20 01:31:43;;;;;;;33.80;15.10;;;18.70;83.80;;;;;;4993448;28;20427;-74
2021/07/20 01:34:12;;;;;;;29.03;14.20;;;18.50;84.60;;;;;;4984575;28;20506;-74
2021/07/20 01:36:40;;;;;;;32.97;16.20;;;18.40;84.90;;;;;;4989787;28;20442;-75
2021/07/20 01:39:09;;;;;;;32.23;14.30;;;18.40;85.00;;;;;;4990954;28;20436;-74
2021/07/20 01:41:36;;;;;;;27.67;14.40;;;18.40;85.20;;;;;;4991063;28;20432;-75
2021/07/20 01:44:05;;;;;;;22.67;13.27;;;18.50;85.20;;;;;;4993763;28;20445;-74
2021/07/20 01:46:33;;;;;;;27.30;15.40;;;18.50;85.00;;;;;;4985829;28;20964;-74
2021/07/20 01:49:02;;;;;;;29.60;14.13;;;18.40;84.30;;;;;;4988005;28;20537;-76
2021/07/20 01:51:28;;;;;;;25.60;14.17;;;18.40;84.90;;;;;;4994052;28;20420;-77
2021/07/20 01:53:56;;;;;;;31.17;15.67;;;18.40;84.70;;;;;;4993657;28;20431;-74
2021/07/20 01:56:23;;;;;;;28.67;15.30;;;18.30;85.30;;;;;;4984207;28;20961;-76
2021/07/20 01:58:49;;;;;;;27.37;14.77;;;18.30;85.30;;;;;;4993142;28;20428;-75
2021/07/20 02:01:17;;;;;;;27.57;13.50;;;18.20;85.50;;;;;;4989850;28;20420;-75
2021/07/20 02:09:10;;;;;;;28.57;14.67;;;18.10;86.50;;;;;;4984032;28;20422;-74
2021/07/20 02:11:37;;;;;;;28.30;14.53;;;18.10;86.50;;;;;;4993059;28;20427;-76
2021/07/20 02:14:09;;;;;;;24.83;13.77;;;18.10;86.60;;;;;;4993048;28;20419;-74
2021/07/20 02:16:40;;;;;;;27.37;14.23;;;18.10;86.60;;;;;;4992357;28;20481;-76
2021/07/20 02:19:20;;;;;;;28.60;14.67;;;18.10;86.50;;;;;;4993130;28;20472;-74
2021/07/20 02:21:50;;;;;;;26.10;14.00;;;18.10;86.60;;;;;;4986336;28;20414;-74
2021/07/20 02:24:18;;;;;;;24.93;13.87;;;18.10;86.90;;;;;;4986255;28;20419;-74
2021/07/20 02:26:46;;;;;;;29.20;14.80;;;18.10;86.60;;;;;;4996834;28;20788;-74
2021/07/20 02:29:15;;;;;;;29.10;14.67;;;18.00;86.60;;;;;;4992722;28;20909;-75
2021/07/20 02:31:42;;;;;;;29.60;14.63;;;17.90;87.30;;;;;;4990808;28;20454;-74
2021/07/20 02:34:09;;;;;;;29.57;14.63;;;17.90;87.70;;;;;;4988700;28;20422;-75
2021/07/20 02:36:39;;;;;;;31.00;14.13;;;17.80;87.70;;;;;;4992889;28;20495;-75
2021/07/20 02:39:07;;;;;;;30.67;16.10;;;17.70;88.00;;;;;;4993986;28;20422;-75
2021/07/20 02:41:34;;;;;;;29.37;16.00;;;17.70;88.00;;;;;;4990913;28;20513;-75
2021/07/20 02:44:01;;;;;;;31.43;14.87;;;17.70;88.00;;;;;;4989952;28;20439;-75
2021/07/20 02:46:28;;;;;;;32.77;15.30;;;17.70;88.10;;;;;;4993924;28;20456;-76
2021/07/20 02:48:56;;;;;;;33.40;14.67;;;17.70;88.00;;;;;;4993716;28;20430;-75
2021/07/20 02:51:23;;;;;;;30.33;14.00;;;17.70;87.70;;;;;;4984926;28;20418;-74
2021/07/20 02:53:54;;;;;;;31.03;15.03;;;17.70;88.10;;;;;;4988198;28;20514;-73
2021/07/20 02:56:22;;;;;;;30.40;14.63;;;17.60;88.00;;;;;;4981692;28;20486;-73
2021/07/20 02:58:50;;;;;;;28.70;14.33;;;17.50;88.30;;;;;;4987133;28;20429;-74
2021/07/20 03:01:17;;;;;;;33.10;14.17;;;17.50;88.60;;;;;;4991905;28;20429;-75
2021/07/20 03:03:44;;;;;;;32.77;15.77;;;17.50;88.90;;;;;;4985582;28;20432;-74
2021/07/20 03:06:12;;;;;;;28.93;14.70;;;17.60;88.90;;;;;;4991955;28;20467;-74
2021/07/20 03:08:39;;;;;;;30.37;15.40;;;17.50;88.70;;;;;;4992513;28;21078;-75
2021/07/20 03:11:08;;;;;;;27.40;14.10;;;17.60;88.90;;;;;;4988193;28;20426;-75
2021/07/20 03:13:39;;;;;;;22.87;13.50;;;17.60;88.70;;;;;;4998703;28;20446;-76
2021/07/20 03:16:09;;;;;;;31.43;15.73;;;17.50;88.40;;;;;;4991693;28;20950;-74
2021/07/20 03:18:39;;;;;;;30.27;15.03;;;17.50;88.40;;;;;;4992711;28;20516;-74
2021/07/20 03:21:06;;;;;;;29.33;13.40;;;17.50;88.10;;;;;;4991929;28;20430;-73
2021/07/20 03:23:33;;;;;;;28.00;13.57;;;17.40;88.60;;;;;;4992887;28;20492;-74
2021/07/20 03:26:00;;;;;;;31.03;13.30;;;17.40;88.70;;;;;;4988099;28;20569;-74
2021/07/20 03:28:27;;;;;;;36.23;15.67;;;17.40;88.90;;;;;;4992338;28;20600;-75
2021/07/20 03:30:55;;;;;;;28.43;14.37;;;17.40;89.50;;;;;;4988296;28;20927;-74
2021/07/20 03:33:23;;;;;;;29.33;13.10;;;17.30;89.70;;;;;;4994980;28;20468;-74
2021/07/20 03:35:50;;;;;;;32.00;14.90;;;17.30;90.00;;;;;;4987788;28;20790;-74
2021/07/20 03:38:18;;;;;;;33.60;14.87;;;17.30;89.70;;;;;;4992070;28;20426;-74
2021/07/20 03:40:47;;;;;;;28.97;13.50;;;17.20;89.90;;;;;;4989189;28;20481;-76
2021/07/20 03:43:13;;;;;;;26.07;13.30;;;17.20;90.00;;;;;;4991594;28;20441;-74
2021/07/20 03:45:39;;;;;;;28.10;13.67;;;17.20;90.30;;;;;;4991106;28;20473;-74
2021/07/20 03:48:06;;;;;;;28.37;13.50;;;17.10;90.40;;;;;;4992027;28;20413;-74
2021/07/20 03:50:32;;;;;;;28.10;14.40;;;17.10;90.50;;;;;;4992122;28;20418;-75
2021/07/20 03:52:58;;;;;;;26.70;13.77;;;17.00;90.70;;;;;;4988038;28;20509;-75
2021/07/20 03:55:24;;;;;;;28.27;14.50;;;17.00;90.80;;;;;;4981608;28;20452;-76
2021/07/20 03:57:52;;;;;;;35.40;13.90;;;16.90;90.90;;;;;;4986164;28;20466;-76
2021/07/20 04:00:18;;;;;;;27.50;13.67;;;16.90;91.00;;;;;;4988934;28;20240;-77
2021/07/20 04:02:58;;;;;;;27.83;14.00;;;16.80;91.00;;;;;;4982480;28;20431;-74
2021/07/20 04:05:26;;;;;;;26.43;13.73;;;16.80;91.10;;;;;;4990193;28;20473;-76
2021/07/20 04:07:54;;;;;;;30.40;14.20;;;16.80;91.10;;;;;;4986125;28;20421;-75
2021/07/20 04:10:20;;;;;;;27.20;14.40;;;16.80;91.00;;;;;;4987244;28;20425;-74
2021/07/20 04:12:46;;;;;;;28.30;13.33;;;16.80;91.10;;;;;;4991579;28;20424;-75
2021/07/20 04:15:16;;;;;;;25.33;12.73;;;16.80;91.20;;;;;;4989481;28;20475;-75
2021/07/20 04:17:42;;;;;;;29.50;13.90;;;16.80;91.00;;;;;;4984314;28;20453;-73
2021/07/20 04:20:10;;;;;;;28.63;14.80;;;16.80;91.00;;;;;;4991210;28;20793;-75
2021/07/20 04:22:36;;;;;;;28.17;14.83;;;16.80;90.60;;;;;;4980995;28;20520;-74
2021/07/20 04:25:03;;;;;;;27.70;13.87;;;16.90;90.60;;;;;;4985387;28;20572;-76
2021/07/20 04:27:29;;;;;;;29.00;13.50;;;17.00;90.50;;;;;;4983512;28;20915;-75
2021/07/20 04:29:55;;;;;;;33.13;12.63;;;17.00;90.30;;;;;;4990090;28;20468;-76
2021/07/20 04:32:23;;;;;;;25.50;12.93;;;17.10;90.00;;;;;;4991662;28;20458;-74
2021/07/20 04:34:49;;;;;;;27.97;12.93;;;17.00;89.60;;;;;;4991446;28;20175;-77
2021/07/20 04:37:16;;;;;;;31.00;13.57;;;17.00;89.90;;;;;;4985747;28;20536;-75
2021/07/20 04:39:42;;;;;;;24.67;13.17;;;17.00;88.90;;;;;;4995242;28;20948;-74
2021/07/20 04:42:08;;;;;;;24.80;13.13;;;17.10;88.90;;;;;;4993602;28;20428;-74
2021/07/20 04:44:36;;;;;;;32.53;13.20;;;17.10;88.60;;;;;;4995536;28;20461;-75
2021/07/20 04:47:02;;;;;;;25.27;12.83;;;17.20;88.30;;;;;;4994611;28;20414;-75
2021/07/20 04:49:28;;;;;;;33.10;13.10;;;17.20;88.10;;;;;;4993256;28;20425;-72
2021/07/20 04:51:54;;;;;;;26.87;13.17;;;17.30;87.80;;;;;;4989898;28;20864;-73
2021/07/20 04:54:21;;;;;;;25.83;12.50;;;17.20;88.10;;;;;;4991052;28;20926;-74
2021/07/20 04:56:47;;;;;;;26.53;12.50;;;17.20;88.60;;;;;;4992673;28;20464;-74
2021/07/20 04:59:13;;;;;;;26.63;13.50;;;17.20;88.10;;;;;;4993231;28;20422;-74
2021/07/20 05:01:41;;;;;;;24.90;13.10;;;17.20;88.30;;;;;;4991643;28;20697;-73
2021/07/20 05:04:08;;;;;;;25.97;14.00;;;17.20;87.80;;;;;;4987622;28;20429;-75
2021/07/20 05:06:37;;;;;;;27.13;13.53;;;17.20;87.80;;;;;;4993448;28;20825;-73
2021/07/20 05:09:05;;;;;;;31.83;14.00;;;17.30;88.00;;;;;;4986304;28;20422;-74
2021/07/20 05:11:33;;;;;;;22.60;13.03;;;17.20;87.70;;;;;;4985495;28;20444;-74
2021/07/20 05:13:59;;;;;;;29.50;15.43;;;17.30;87.40;;;;;;4984503;28;20439;-73
2021/07/20 05:16:25;;;;;;;27.13;13.00;;;17.30;87.30;;;;;;4986936;28;20438;-75
2021/07/20 05:18:51;;;;;;;23.33;12.20;;;17.40;87.10;;;;;;4992351;28;20194;-74
2021/07/20 05:21:18;;;;;;;21.37;11.73;;;17.40;87.10;;;;;;4992479;28;20465;-72
2021/07/20 05:23:44;;;;;;;28.40;13.90;;;17.40;86.90;;;;;;4987651;28;20456;-73
2021/07/20 05:26:12;;;;;;;25.37;12.27;;;17.30;87.00;;;;;;4989198;28;20680;-73
2021/07/20 05:28:39;;;;;;;24.13;12.97;;;17.10;87.40;;;;;;4987330;28;20940;-74
2021/07/20 05:31:06;;;;;;;30.10;13.17;;;17.20;88.00;;;;;;4989325;28;20797;-73
2021/07/20 05:33:33;;;;;;;30.10;13.73;;;17.30;87.80;;;;;;4985026;28;20797;-73
2021/07/20 05:36:02;;;;;;;26.43;11.70;;;17.40;87.10;;;;;;4986162;28;20544;-73
2021/07/20 05:38:29;;;;;;;28.47;12.70;;;17.40;86.90;;;;;;4993438;28;20434;-72
2021/07/20 05:40:57;;;;;;;25.37;12.90;;;17.40;86.50;;;;;;4988557;28;20453;-73
2021/07/20 05:43:26;;;;;;;23.93;12.80;;;17.40;86.80;;;;;;4993026;28;20445;-72
2021/07/20 05:45:54;;;;;;;24.83;12.10;;;17.40;86.90;;;;;;4999677;28;20995;-72
2021/07/20 05:48:22;;;;;;;28.33;12.57;;;17.50;86.60;;;;;;4990144;28;21146;-74
2021/07/20 05:50:52;;;;;;;23.63;13.10;;;17.50;86.50;;;;;;4986676;28;20433;-74
2021/07/20 05:53:21;;;;;;;25.67;11.90;;;17.50;86.00;;;;;;4992277;28;20841;-74
2021/07/20 05:55:53;;;;;;;27.00;13.57;;;17.50;86.20;;;;;;4983911;28;20442;-71
2021/07/20 05:58:21;;;;;;;24.47;13.30;;;17.50;86.20;;;;;;4946234;28;1192607;-72
2021/07/20 06:00:48;;;;;;;28.03;12.57;;;17.50;86.30;;;;;;4994099;28;20186;-73
2021/07/20 06:03:17;;;;;;;25.10;11.10;;;17.50;86.50;;;;;;4987230;28;21131;-72
2021/07/20 06:05:45;;;;;;;27.17;12.97;;;17.50;86.60;;;;;;4992814;28;20480;-73
2021/07/20 06:08:16;;;;;;;29.10;13.30;;;17.60;85.60;;;;;;4992187;28;20430;-72
2021/07/20 06:10:45;;;;;;;22.20;11.40;;;17.70;85.30;;;;;;4990071;28;20444;-72
2021/07/20 06:13:11;;;;;;;24.70;12.47;;;17.70;85.00;;;;;;4983494;28;20435;-72
2021/07/20 06:15:49;;;;;;;26.03;12.13;;;17.80;84.90;;;;;;4986149;28;20446;-73
2021/07/20 06:18:15;;;;;;;30.07;12.23;;;17.80;84.60;;;;;;4988443;28;20485;-74
2021/07/20 06:20:54;;;;;;;21.60;11.60;;;17.80;84.90;;;;;;4983828;28;20510;-73
2021/07/20 06:23:21;;;;;;;23.70;11.50;;;17.90;85.00;;;;;;4991127;28;20859;-72
2021/07/20 06:25:49;;;;;;;26.03;12.30;;;18.00;84.90;;;;;;4986034;28;20477;-73
2021/07/20 06:28:15;;;;;;;23.10;12.13;;;18.00;84.30;;;;;;4987282;28;20484;-72
2021/07/20 06:30:44;;;;;;;27.67;12.70;;;18.10;83.80;;;;;;4984387;28;20430;-72
2021/07/20 06:33:12;;;;;;;23.93;11.70;;;18.10;84.10;;;;;;4986984;28;20413;-73
2021/07/20 06:35:40;;;;;;;21.30;11.70;;;18.20;84.10;;;;;;4981530;28;20457;-74
2021/07/20 06:38:10;;;;;;;27.27;12.73;;;18.20;83.10;;;;;;4992132;28;20978;-72
2021/07/20 06:40:36;;;;;;;22.83;11.50;;;18.20;83.60;;;;;;4987558;28;20453;-72
2021/07/20 06:43:02;;;;;;;22.87;12.83;;;18.20;83.10;;;;;;4989867;28;20438;-73
2021/07/20 06:45:28;;;;;;;20.27;11.60;;;18.10;83.40;;;;;;4986193;28;20477;-73
2021/07/20 06:47:55;;;;;;;27.20;11.73;;;18.20;83.30;;;;;;4988398;28;20533;-73
2021/07/20 06:50:21;;;;;;;27.70;12.30;;;18.30;83.30;;;;;;4990574;28;20437;-73
2021/07/20 06:52:48;;;;;;;23.43;12.10;;;18.40;83.00;;;;;;4988924;28;20434;-74
2021/07/20 06:55:15;;;;;;;21.97;11.63;;;18.40;83.00;;;;;;4981402;28;20300;-73
2021/07/20 06:57:45;;;;;;;32.03;12.97;;;18.50;82.80;;;;;;4986253;28;20989;-74
2021/07/20 07:00:11;;;;;;;22.43;12.50;;;18.50;82.40;;;;;;4987778;28;20436;-72
2021/07/20 07:02:42;;;;;;;23.80;10.93;;;18.50;82.20;;;;;;4992080;28;20864;-74
2021/07/20 07:05:12;;;;;;;24.97;11.67;;;18.70;82.10;;;;;;4990067;28;20964;-72
2021/07/20 07:07:38;;;;;;;24.60;11.73;;;18.70;81.50;;;;;;4991777;28;20426;-74
2021/07/20 07:10:07;;;;;;;22.73;12.43;;;18.70;81.80;;;;;;4988015;28;20427;-73
2021/07/20 07:12:36;;;;;;;23.40;11.80;;;18.80;81.20;;;;;;4983144;28;20432;-74
2021/07/20 07:15:05;;;;;;;23.60;12.20;;;18.80;81.40;;;;;;4987478;28;20459;-73
2021/07/20 07:17:33;;;;;;;23.10;11.07;;;18.80;81.40;;;;;;4985396;28;20438;-73
2021/07/20 07:20:03;;;;;;;23.33;12.70;;;18.90;81.20;;;;;;4987062;28;20428;-73
2021/07/20 07:22:30;;;;;;;24.20;12.87;;;19.00;81.40;;;;;;4991402;28;20483;-73
2021/07/20 07:24:57;;;;;;;24.93;11.73;;;19.10;81.10;;;;;;4990844;28;20476;-72
2021/07/20 07:27:24;;;;;;;20.17;10.90;;;19.20;80.00;;;;;;4991083;28;20427;-73
2021/07/20 07:29:54;;;;;;;22.10;12.70;;;19.30;79.60;;;;;;4984099;28;20435;-72
2021/07/20 07:32:21;;;;;;;20.30;11.93;;;19.30;79.00;;;;;;4985901;28;20430;-73
2021/07/20 07:34:48;;;;;;;23.07;12.07;;;19.40;78.90;;;;;;4990015;28;20466;-74
2021/07/20 07:37:19;;;;;;;22.33;11.83;;;19.30;78.30;;;;;;4984820;28;20488;-73
2021/07/20 07:39:46;;;;;;;18.10;10.23;;;19.40;78.40;;;;;;4991015;28;20487;-72
2021/07/20 07:42:12;;;;;;;20.47;10.50;;;19.50;78.40;;;;;;4981281;28;20511;-72
2021/07/20 07:44:41;;;;;;;22.03;11.00;;;19.60;77.70;;;;;;4990399;28;21012;-74
2021/07/20 07:47:08;;;;;;;28.40;12.10;;;19.70;77.80;;;;;;4990815;28;20436;-73
2021/07/20 07:49:35;;;;;;;23.70;12.37;;;19.80;77.70;;;;;;4986241;28;20418;-73
2021/07/20 07:52:02;;;;;;;22.90;11.60;;;20.00;76.70;;;;;;4987317;28;20457;-72
2021/07/20 07:54:28;;;;;;;20.60;11.50;;;20.00;76.20;;;;;;4990094;28;20876;-75
2021/07/20 07:56:54;;;;;;;18.90;10.73;;;19.90;76.80;;;;;;4986239;28;20468;-74
2021/07/20 07:59:23;;;;;;;19.30;10.83;;;20.10;76.40;;;;;;4990123;28;20430;-73
2021/07/20 08:01:52;;;;;;;22.90;10.10;;;20.10;76.10;;;;;;4985642;28;20187;-73
2021/07/20 08:04:22;;;;;;;31.63;11.10;;;20.20;75.50;;;;;;4990112;28;20429;-72
2021/07/20 08:06:49;;;;;;;24.90;10.93;;;20.20;75.40;;;;;;4983618;28;20451;-74
2021/07/20 08:09:17;;;;;;;15.30;9.80;;;20.20;74.20;;;;;;4980850;28;20429;-74
2021/07/20 08:11:45;;;;;;;24.70;10.07;;;20.20;74.80;;;;;;4984881;28;20430;-74
2021/07/20 08:14:14;;;;;;;20.53;9.77;;;20.20;74.30;;;;;;4981943;28;20597;-72
2021/07/20 08:16:44;;;;;;;20.57;9.47;;;20.30;73.00;;;;;;4984781;28;20489;-74
2021/07/20 08:19:11;;;;;;;14.23;9.30;;;20.10;73.50;;;;;;4986320;28;20765;-73
2021/07/20 08:21:38;;;;;;;21.30;10.50;;;20.00;74.90;;;;;;4983091;28;21138;-73
2021/07/20 08:24:04;;;;;;;21.43;11.60;;;20.00;75.10;;;;;;4984971;28;20522;-73
2021/07/20 08:26:41;;;;;;;22.00;9.93;;;20.10;74.80;;;;;;4989238;28;21015;-73
2021/07/20 08:29:10;;;;;;;25.90;10.97;;;20.20;74.00;;;;;;4985871;28;20414;-73
2021/07/20 08:31:41;;;;;;;20.37;10.70;;;20.30;74.20;;;;;;4988094;28;20429;-73
2021/07/20 08:34:09;;;;;;;23.27;10.83;;;20.50;73.90;;;;;;4988163;28;20415;-74
2021/07/20 08:36:39;;;;;;;26.73;11.03;;;20.50;71.60;;;;;;4988566;28;20529;-74
2021/07/20 08:39:07;;;;;;;19.23;10.10;;;20.60;72.40;;;;;;4983511;28;20457;-73
2021/07/20 08:42:11;;;;;;;20.40;9.87;;;20.60;71.60;;;;;;4989311;28;20526;-73
2021/07/20 08:44:41;;;;;;;22.50;10.00;;;20.60;70.50;;;;;;4984267;28;20476;-74
2021/07/20 08:47:16;;;;;;;20.20;9.47;;;20.50;69.80;;;;;;4990935;28;20449;-73
2021/07/20 08:50:12;;;;;;;17.77;8.87;;;20.50;68.90;;;;;;4985998;28;20927;-75
2021/07/20 08:52:58;;;;;;;21.90;9.97;;;20.60;68.50;;;;;;4986150;28;21024;-72
2021/07/20 08:55:27;;;;;;;17.60;9.93;;;20.90;70.20;;;;;;4983450;28;20451;-73
2021/07/20 08:58:00;;;;;;;20.27;10.37;;;20.90;69.80;;;;;;4986763;28;20859;-72
2021/07/20 09:00:38;;;;;;;17.70;9.93;;;20.90;69.40;;;;;;4981277;28;20431;-73
2021/07/20 09:03:35;;;;;;;21.57;9.43;;;20.90;69.90;;;;;;4981762;28;20447;-73
2021/07/20 09:06:16;;;;;;;19.03;9.80;;;20.90;69.10;;;;;;4987096;28;20498;-72
2021/07/20 09:08:57;;;;;;;18.63;10.00;;;20.90;70.10;;;;;;4982594;28;20421;-72
2021/07/20 09:11:39;;;;;;;23.93;10.20;;;20.90;70.40;;;;;;4987905;28;20844;-75
2021/07/20 09:14:11;;;;;;;17.90;10.00;;;21.00;70.20;;;;;;4989926;28;20426;-75
2021/07/20 09:16:48;;;;;;;21.53;10.23;;;21.10;69.80;;;;;;4988975;28;21060;-72
2021/07/20 09:19:27;;;;;;;23.37;11.53;;;21.30;68.60;;;;;;4988625;28;20457;-72
2021/07/20 09:21:56;;;;;;;22.73;10.87;;;21.30;68.20;;;;;;4990471;28;20423;-74
2021/07/20 09:24:48;;;;;;;17.17;9.80;;;21.20;68.30;;;;;;4984157;28;20783;-72
2021/07/20 09:27:22;;;;;;;17.50;9.37;;;21.20;68.90;;;;;;4989969;28;20428;-74
2021/07/20 09:29:53;;;;;;;23.77;10.50;;;21.30;68.30;;;;;;4992998;28;20419;-73
2021/07/20 09:32:48;;;;;;;22.60;11.33;;;21.50;67.70;;;;;;4992405;28;20431;-75
2021/07/20 09:35:47;;;;;;;23.37;10.73;;;21.70;67.20;;;;;;4993493;28;20949;-73
2021/07/20 09:38:39;;;;;;;19.10;10.43;;;21.70;67.00;;;;;;4985797;28;20804;-72
2021/07/20 09:41:33;;;;;;;21.50;10.80;;;21.70;66.30;;;;;;4989340;28;20474;-74
2021/07/20 09:44:14;;;;;;;18.97;11.13;;;21.70;67.20;;;;;;4989155;28;20443;-72
2021/07/20 09:46:45;;;;;;;25.80;11.13;;;21.80;67.00;;;;;;4988318;28;21028;-72
2021/07/20 09:49:24;;;;;;;22.63;11.30;;;21.90;66.30;;;;;;4989627;28;20903;-73
2021/07/20 09:52:15;;;;;;;23.20;12.17;;;22.00;65.80;;;;;;4986372;28;20516;-75
2021/07/20 09:55:01;;;;;;;19.87;11.13;;;22.10;65.40;;;;;;4979982;28;20429;-74
2021/07/20 09:57:53;;;;;;;20.53;10.90;;;22.10;65.10;;;;;;4970089;28;20892;-73
2021/07/20 10:00:41;;;;;;;19.50;10.70;;;22.10;66.10;;;;;;4950024;29;20786;-73
2021/07/20 10:03:40;;;;;;;23.80;12.70;;;22.30;65.70;;;;;;4951947;29;20434;-73
2021/07/20 10:06:34;;;;;;;21.43;11.13;;;22.20;65.40;;;;;;4935247;29;20481;-73
2021/07/20 10:09:04;;;;;;;24.90;11.80;;;22.30;65.70;;;;;;4951696;29;20578;-73
2021/07/20 10:12:06;;;;;;;26.67;13.00;;;22.50;65.00;;;;;;4935640;29;20430;-73
2021/07/20 10:15:04;;;;;;;19.60;10.90;;;22.60;64.20;;;;;;4949296;29;20446;-74
2021/07/20 10:17:50;;;;;;;23.50;12.03;;;22.70;64.20;;;;;;4952587;29;20440;-74
2021/07/20 10:20:16;;;;;;;21.70;11.77;;;23.00;62.90;;;;;;4952889;29;20436;-74
2021/07/20 10:22:44;;;;;;;22.70;11.47;;;23.00;62.60;;;;;;4953288;29;20442;-73
2021/07/20 10:25:27;;;;;;;22.23;11.93;;;23.00;62.60;;;;;;4935231;29;20679;-73
2021/07/20 10:28:06;;;;;;;21.37;12.20;;;23.20;63.10;;;;;;4953159;29;20467;-73
2021/07/20 10:30:36;;;;;;;25.17;12.37;;;23.10;62.00;;;;;;4953149;29;20518;-74
2021/07/20 10:33:24;;;;;;;23.03;13.00;;;23.20;62.30;;;;;;4915015;29;20467;-73
2021/07/20 10:36:00;;;;;;;21.30;11.10;;;23.40;60.90;;;;;;4907904;29;20466;-73
2021/07/20 10:38:45;;;;;;;24.87;11.40;;;23.60;60.30;;;;;;4977731;28;20450;-73
2021/07/20 10:41:16;;;;;;;19.27;10.80;;;23.50;60.10;;;;;;4991210;28;20427;-74
2021/07/20 10:44:08;;;;;;;22.77;11.73;;;23.60;59.90;;;;;;4985704;28;20424;-74
2021/07/20 10:46:35;;;;;;;27.37;13.10;;;24.10;58.90;;;;;;4992858;28;20476;-74
2021/07/20 10:49:27;;;;;;;25.20;12.70;;;24.30;57.70;;;;;;4990263;28;20430;-74
2021/07/20 10:52:15;;;;;;;23.03;12.23;;;23.70;59.30;;;;;;4986437;28;20464;-74
2021/07/20 10:54:46;;;;;;;24.37;12.83;;;23.40;60.60;;;;;;4991057;28;20836;-73
2021/07/20 10:57:19;;;;;;;20.50;12.50;;;23.60;60.30;;;;;;4991777;28;20507;-73
2021/07/20 11:00:05;;;;;;;22.00;11.60;;;24.00;58.90;;;;;;4990098;28;20432;-74
2021/07/20 11:03:10;;;;;;;21.83;11.67;;;24.40;58.10;;;;;;4990402;28;20429;-72
2021/07/20 11:05:44;;;;;;;24.03;12.13;;;24.70;57.20;;;;;;4962759;28;21064;-73
2021/07/20 11:08:11;;;;;;;21.90;12.00;;;24.10;59.10;;;;;;4958873;28;20986;-73
2021/07/20 11:10:57;;;;;;;22.60;12.83;;;23.60;59.70;;;;;;4969880;28;20451;-73
2021/07/20 11:13:30;;;;;;;25.37;12.97;;;23.60;60.00;;;;;;4969097;28;20966;-73
2021/07/20 11:15:59;;;;;;;22.70;11.40;;;23.30;60.40;;;;;;4962155;28;20442;-73
2021/07/20 11:18:29;;;;;;;19.20;11.57;;;23.60;60.10;;;;;;4968202;28;20937;-73
2021/07/20 11:21:00;;;;;;;22.17;12.03;;;23.80;58.80;;;;;;4969490;28;20513;-73
2021/07/20 11:23:31;;;;;;;27.23;12.40;;;23.90;57.30;;;;;;4969635;28;21014;-73
2021/07/20 11:25:58;;;;;;;21.00;11.97;;;24.10;57.70;;;;;;4969379;28;20487;-74
2021/07/20 11:28:25;;;;;;;19.80;12.10;;;24.70;56.90;;;;;;4969185;28;20437;-72
2021/07/20 11:30:54;;;;;;;23.70;12.20;;;24.80;56.20;;;;;;4968624;28;20471;-74
2021/07/20 11:33:42;;;;;;;25.70;12.57;;;24.50;57.30;;;;;;4964385;28;20501;-72
2021/07/20 11:36:13;;;;;;;22.60;12.20;;;24.40;57.20;;;;;;4966946;28;20478;-74
2021/07/20 11:38:41;;;;;;;22.67;12.50;;;24.30;57.80;;;;;;4964561;28;20429;-74
2021/07/20 11:41:33;;;;;;;19.60;11.23;;;24.30;56.90;;;;;;4985115;28;20434;-72
2021/07/20 11:44:34;;;;;;;20.20;11.20;;;24.20;57.30;;;;;;4989804;28;20428;-74
2021/07/20 11:47:21;;;;;;;18.03;11.00;;;24.30;57.20;;;;;;4985941;28;20521;-71
2021/07/20 11:50:00;;;;;;;22.80;11.80;;;24.40;57.00;;;;;;4984613;28;20412;-74
2021/07/20 11:52:46;;;;;;;19.80;12.53;;;25.00;55.40;;;;;;4984832;28;20425;-72
2021/07/20 11:55:39;;;;;;;25.90;12.97;;;25.40;54.50;;;;;;4985144;28;20440;-73
2021/07/20 11:58:17;;;;;;;19.93;12.20;;;25.10;54.90;;;;;;4985254;28;20439;-72
2021/07/20 12:01:21;;;;;;;21.87;11.30;;;24.90;56.40;;;;;;4985529;28;20432;-74
2021/07/20 12:04:24;;;;;;;19.93;11.83;;;24.80;55.30;;;;;;4983243;28;20420;-74
2021/07/20 12:07:07;;;;;;;27.87;13.33;;;24.50;55.70;;;;;;4985826;28;20448;-73
2021/07/20 12:09:39;;;;;;;25.73;12.93;;;24.60;55.60;;;;;;4983837;28;20417;-74
2021/07/20 12:12:06;;;;;;;25.87;13.10;;;24.50;55.30;;;;;;4991011;28;20462;-73
2021/07/20 12:14:32;;;;;;;21.40;11.67;;;24.10;56.20;;;;;;4982640;28;20887;-74
2021/07/20 12:16:58;;;;;;;24.00;12.20;;;24.00;56.60;;;;;;4990199;28;20440;-74
2021/07/20 12:19:30;;;;;;;22.03;12.57;;;24.10;53.40;;;;;;4989406;28;20516;-75
2021/07/20 12:22:03;;;;;;;23.37;11.93;;;24.20;52.60;;;;;;4991123;28;20439;-73
2021/07/20 12:24:30;;;;;;;20.00;11.77;;;24.30;52.60;;;;;;4986308;28;20427;-72
2021/07/20 12:26:55;;;;;;;19.80;12.13;;;24.40;53.20;;;;;;4988797;28;20452;-73
2021/07/20 12:29:21;;;;;;;19.00;11.37;;;24.50;53.30;;;;;;4989503;28;20940;-73
2021/07/20 12:31:49;;;;;;;24.40;12.17;;;24.70;53.40;;;;;;4989215;28;20238;-73
2021/07/20 12:34:16;;;;;;;19.47;11.63;;;25.00;53.40;;;;;;4990313;28;20219;-72
2021/07/20 12:36:45;;;;;;;20.50;12.07;;;25.20;52.20;;;;;;4985523;28;20451;-73
2021/07/20 12:39:15;;;;;;;28.60;12.70;;;25.50;51.20;;;;;;4988026;28;20768;-73
2021/07/20 12:41:47;;;;;;;20.67;11.47;;;25.50;50.50;;;;;;4982900;28;20420;-73
2021/07/20 12:44:15;;;;;;;21.80;12.10;;;25.60;51.00;;;;;;4984992;28;20431;-73
2021/07/20 12:46:41;;;;;;;18.77;11.07;;;26.10;49.30;;;;;;4982211;28;20570;-73
2021/07/20 12:49:09;;;;;;;19.40;10.93;;;26.60;48.90;;;;;;4985795;28;20414;-73
2021/07/20 12:51:35;;;;;;;20.20;11.47;;;26.90;46.30;;;;;;4985591;28;20475;-73
2021/07/20 12:54:01;;;;;;;20.70;11.77;;;26.70;46.50;;;;;;4990132;28;20424;-74